Time;durP1;ratioP1;P1;durP2;ratioP2;P2;SDS_P1;SDS_P2;PMS_P1;PMS_P2;Temp;Humidity;BMP_temperature;BMP_pressure;BME280_temperature;BME280_humidity;BME280_pressure;Samples;Min_cycle;Max_cycle;Signal;HPM_P1;HPM_P2
2022/03/12 00:01:37;;;;;;;13.53;7.93;;;8.70;83.00;;;;;;5070128;28;20219;-84
2022/03/12 00:04:06;;;;;;;11.90;7.53;;;8.70;83.00;;;;;;5080173;28;20688;-84
2022/03/12 00:06:34;;;;;;;16.77;8.13;;;8.70;82.90;;;;;;5060443;28;20775;-84
2022/03/12 00:09:01;;;;;;;11.70;7.50;;;8.70;82.90;;;;;;5070283;28;20206;-84
2022/03/12 00:11:49;;;;;;;13.97;7.37;;;8.70;82.70;;;;;;5069785;28;20271;-84
2022/03/12 00:14:16;;;;;;;13.00;8.10;;;8.70;82.50;;;;;;5067245;28;20244;-84
2022/03/12 00:16:44;;;;;;;10.60;7.30;;;8.70;82.00;;;;;;5052533;28;20216;-84
2022/03/12 00:19:11;;;;;;;14.33;6.90;;;8.80;81.90;;;;;;5072500;28;20211;-84
2022/03/12 00:21:42;;;;;;;14.50;7.83;;;8.80;81.00;;;;;;5068138;28;20219;-84
2022/03/12 00:24:12;;;;;;;12.90;7.70;;;8.80;80.80;;;;;;5072540;28;20296;-86
2022/03/12 00:26:40;;;;;;;10.80;6.97;;;8.90;80.40;;;;;;5070180;28;20249;-86
2022/03/12 00:29:14;;;;;;;10.93;6.67;;;8.90;80.00;;;;;;5069844;28;20207;-85
2022/03/12 00:31:43;;;;;;;14.77;7.10;;;9.00;79.70;;;;;;5069646;28;20208;-84
2022/03/12 00:34:11;;;;;;;11.23;6.97;;;9.00;79.40;;;;;;5070069;28;20589;-85
2022/03/12 00:36:38;;;;;;;13.03;6.73;;;9.10;78.80;;;;;;5056830;28;20199;-86
2022/03/12 00:39:09;;;;;;;11.30;7.33;;;9.20;78.80;;;;;;5074344;28;20671;-86
2022/03/12 00:41:38;;;;;;;12.83;6.80;;;9.20;78.20;;;;;;5056715;28;20227;-86
2022/03/12 00:44:06;;;;;;;12.10;7.10;;;9.20;78.20;;;;;;5069880;28;20285;-87
2022/03/12 00:46:33;;;;;;;12.00;7.43;;;9.30;77.60;;;;;;5069990;28;20251;-85
2022/03/12 00:48:59;;;;;;;11.27;6.17;;;9.30;77.20;;;;;;5070685;28;20651;-84
2022/03/12 00:51:26;;;;;;;11.47;6.47;;;9.30;76.90;;;;;;5075529;28;20274;-85
2022/03/12 00:53:53;;;;;;;10.17;6.90;;;9.40;76.70;;;;;;5057649;28;20312;-86
2022/03/12 00:56:20;;;;;;;10.47;6.60;;;9.40;76.50;;;;;;5051284;28;20749;-87
2022/03/12 00:58:48;;;;;;;11.97;6.43;;;9.50;76.30;;;;;;5050484;28;20231;-87
2022/03/12 01:01:14;;;;;;;12.67;7.07;;;9.40;76.30;;;;;;5051526;28;20209;-84
2022/03/12 01:03:42;;;;;;;10.53;6.90;;;9.50;76.10;;;;;;5054882;28;20209;-86
2022/03/12 01:06:14;;;;;;;11.07;6.53;;;9.50;75.80;;;;;;5050438;28;20240;-85
2022/03/12 01:08:41;;;;;;;12.40;7.30;;;9.50;75.60;;;;;;5047069;28;20216;-84
2022/03/12 01:11:09;;;;;;;10.73;6.87;;;9.50;75.70;;;;;;5054335;28;20205;-85
2022/03/12 01:13:39;;;;;;;14.07;6.77;;;9.50;75.70;;;;;;5051657;28;20233;-84
2022/03/12 01:16:06;;;;;;;11.83;7.33;;;9.50;75.50;;;;;;5032941;28;20282;-86
2022/03/12 01:18:40;;;;;;;15.20;6.70;;;9.50;75.40;;;;;;5052747;28;20584;-85
2022/03/12 01:21:10;;;;;;;12.73;6.70;;;9.50;75.40;;;;;;5036300;28;20245;-85
2022/03/12 01:23:37;;;;;;;12.43;7.17;;;9.50;75.60;;;;;;5054252;28;20241;-87
2022/03/12 01:26:05;;;;;;;11.53;6.17;;;9.50;75.60;;;;;;5054058;28;20748;-84
2022/03/12 01:28:33;;;;;;;9.87;6.87;;;9.40;75.70;;;;;;5055576;28;20300;-85
2022/03/12 01:31:01;;;;;;;16.87;6.80;;;9.40;75.80;;;;;;5050986;28;20300;-86
2022/03/12 01:33:29;;;;;;;12.07;6.83;;;9.50;76.00;;;;;;5039094;28;20221;-86
2022/03/12 01:35:57;;;;;;;16.27;6.87;;;9.40;75.90;;;;;;5054113;28;20222;-86
2022/03/12 01:38:46;;;;;;;11.20;6.73;;;9.50;76.10;;;;;;5053526;28;20539;-85
2022/03/12 01:41:15;;;;;;;11.53;6.23;;;9.50;75.80;;;;;;5039249;28;20296;-84
2022/03/12 01:43:43;;;;;;;10.57;6.10;;;9.50;75.90;;;;;;5053556;28;20209;-85
2022/03/12 01:46:10;;;;;;;10.17;6.63;;;9.60;76.00;;;;;;5041481;28;20303;-85
2022/03/12 01:48:43;;;;;;;12.70;7.53;;;9.60;76.20;;;;;;5053646;28;20550;-85
2022/03/12 01:51:11;;;;;;;10.83;6.70;;;9.60;76.00;;;;;;5051927;28;21572;-85
2022/03/12 01:53:38;;;;;;;10.10;6.80;;;9.60;76.20;;;;;;5053508;28;20245;-86
2022/03/12 01:56:05;;;;;;;12.53;6.83;;;9.60;76.20;;;;;;5054504;28;20218;-85
2022/03/12 01:58:34;;;;;;;10.37;7.07;;;9.60;76.30;;;;;;5055150;28;20197;-85
2022/03/12 02:01:01;;;;;;;11.10;7.50;;;9.60;76.20;;;;;;5059122;28;20251;-83
2022/03/12 02:03:29;;;;;;;10.83;7.00;;;9.60;76.10;;;;;;5053066;28;20217;-84
2022/03/12 02:05:57;;;;;;;11.17;6.83;;;9.70;76.40;;;;;;5049998;28;20423;-84
2022/03/12 02:08:24;;;;;;;13.10;6.90;;;9.70;76.30;;;;;;5048493;28;20560;-85
2022/03/12 02:10:56;;;;;;;12.23;7.47;;;9.70;76.40;;;;;;5051375;28;21453;-85
2022/03/12 02:13:24;;;;;;;12.50;7.10;;;9.60;76.90;;;;;;5051760;28;20284;-85
2022/03/12 02:16:05;;;;;;;12.83;7.73;;;9.60;76.40;;;;;;5051816;28;20586;-85
2022/03/12 02:18:32;;;;;;;11.83;7.50;;;9.60;76.60;;;;;;5051745;28;20193;-84
2022/03/12 02:20:59;;;;;;;10.00;7.00;;;9.70;76.50;;;;;;5049408;28;20202;-84
2022/03/12 02:23:26;;;;;;;14.23;7.00;;;9.70;76.90;;;;;;5051203;28;20230;-85
2022/03/12 02:25:52;;;;;;;12.17;7.00;;;9.60;77.80;;;;;;5045031;28;20209;-84
2022/03/12 02:28:19;;;;;;;13.27;7.73;;;9.60;79.20;;;;;;5051638;28;20207;-84
2022/03/12 02:30:51;;;;;;;12.53;7.03;;;9.70;79.50;;;;;;5048914;28;20213;-84
2022/03/12 02:33:28;;;;;;;14.87;8.03;;;9.60;80.60;;;;;;5037670;28;20208;-85
2022/03/12 02:35:56;;;;;;;15.50;8.10;;;9.60;81.40;;;;;;5049428;28;20207;-85
2022/03/12 02:38:26;;;;;;;13.50;7.60;;;9.60;82.10;;;;;;5051822;28;20229;-84
2022/03/12 02:40:53;;;;;;;15.30;8.73;;;9.60;83.10;;;;;;5045865;28;20734;-84
2022/03/12 02:43:26;;;;;;;10.80;7.30;;;9.50;83.60;;;;;;5056143;28;20255;-84
2022/03/12 02:45:57;;;;;;;14.07;8.33;;;9.50;84.60;;;;;;5053335;28;20217;-86
2022/03/12 02:48:25;;;;;;;12.20;7.73;;;9.50;85.20;;;;;;5045250;28;20568;-85
2022/03/12 02:50:55;;;;;;;11.20;7.80;;;9.40;85.50;;;;;;5043258;28;20204;-86
2022/03/12 02:53:22;;;;;;;10.67;7.43;;;9.40;86.50;;;;;;5054433;28;20246;-85
2022/03/12 02:55:51;;;;;;;11.97;7.67;;;9.30;86.70;;;;;;5056950;28;20276;-84
2022/03/12 02:58:18;;;;;;;13.77;7.90;;;9.30;87.20;;;;;;5059131;28;20237;-85
2022/03/12 03:00:47;;;;;;;14.17;7.97;;;9.30;87.70;;;;;;5070904;28;20388;-85
2022/03/12 03:03:14;;;;;;;11.07;7.50;;;9.30;88.20;;;;;;5058835;28;20241;-84
2022/03/12 03:05:46;;;;;;;12.60;7.63;;;9.20;88.70;;;;;;5056836;28;20208;-84
2022/03/12 03:08:18;;;;;;;14.17;8.37;;;9.20;88.50;;;;;;5053125;28;20670;-85
2022/03/12 03:10:59;;;;;;;12.87;7.80;;;9.20;89.10;;;;;;5055034;28;20602;-84
2022/03/12 03:13:30;;;;;;;15.23;9.10;;;9.20;89.90;;;;;;5054430;28;20246;-86
2022/03/12 03:16:01;;;;;;;15.10;8.27;;;9.20;90.20;;;;;;5024378;28;20259;-85
2022/03/12 03:18:33;;;;;;;14.77;8.10;;;9.10;90.40;;;;;;5068509;28;20199;-85
2022/03/12 03:21:01;;;;;;;13.97;7.97;;;9.10;90.60;;;;;;5070774;28;20227;-85
2022/03/12 03:23:31;;;;;;;13.10;7.87;;;9.10;90.90;;;;;;5052304;28;20208;-84
2022/03/12 03:26:00;;;;;;;14.13;7.90;;;9.00;91.00;;;;;;5067240;28;20195;-83
2022/03/12 03:28:27;;;;;;;14.30;8.67;;;9.10;91.00;;;;;;5065024;28;20208;-85
2022/03/12 03:30:57;;;;;;;14.57;8.03;;;9.00;91.20;;;;;;5072276;28;20272;-84
2022/03/12 03:33:27;;;;;;;13.57;7.87;;;9.00;91.40;;;;;;5058111;28;20308;-84
2022/03/12 03:35:56;;;;;;;13.93;8.10;;;9.00;91.60;;;;;;5052147;28;20318;-83
2022/03/12 03:38:24;;;;;;;14.10;8.67;;;9.00;91.70;;;;;;5054039;28;20211;-86
2022/03/12 03:40:51;;;;;;;15.47;8.47;;;8.90;91.80;;;;;;5055754;28;20272;-85
2022/03/12 03:43:20;;;;;;;13.00;8.73;;;8.90;92.10;;;;;;5057498;28;20264;-84
2022/03/12 03:45:51;;;;;;;13.27;8.23;;;8.90;92.20;;;;;;5051990;28;20714;-85
2022/03/12 03:48:21;;;;;;;14.60;8.97;;;8.90;92.40;;;;;;5062831;28;20691;-85
2022/03/12 03:50:49;;;;;;;15.73;8.77;;;8.90;92.70;;;;;;5059334;28;20227;-85
2022/03/12 03:53:19;;;;;;;15.43;8.73;;;8.80;92.80;;;;;;5058981;28;20724;-84
2022/03/12 03:55:46;;;;;;;14.97;8.50;;;8.80;92.90;;;;;;5070331;28;20727;-84
2022/03/12 03:58:14;;;;;;;14.30;9.03;;;8.70;92.90;;;;;;5072586;28;20194;-84
2022/03/12 04:00:57;;;;;;;12.13;8.07;;;8.70;93.00;;;;;;5072187;28;20226;-85
2022/03/12 04:03:25;;;;;;;13.80;8.40;;;8.70;93.00;;;;;;5055764;28;20614;-85
2022/03/12 04:05:52;;;;;;;14.70;8.33;;;8.70;93.00;;;;;;5077347;28;20241;-85
2022/03/12 04:08:19;;;;;;;12.40;8.70;;;8.70;93.00;;;;;;5074091;28;20214;-85
2022/03/12 04:10:45;;;;;;;17.70;8.97;;;8.70;93.10;;;;;;5074275;28;20711;-86
2022/03/12 04:13:18;;;;;;;12.10;7.70;;;8.70;93.00;;;;;;5076813;28;20271;-85
2022/03/12 04:15:46;;;;;;;13.40;8.30;;;8.70;93.10;;;;;;5052452;28;20272;-85
2022/03/12 04:18:15;;;;;;;17.70;7.87;;;8.70;93.20;;;;;;5071673;28;20734;-85
2022/03/12 04:20:47;;;;;;;13.83;8.07;;;8.70;93.00;;;;;;5074313;28;20223;-83
2022/03/12 04:23:21;;;;;;;16.37;8.20;;;8.70;93.20;;;;;;5082221;28;20209;-83
2022/03/12 04:25:51;;;;;;;12.43;7.83;;;8.70;93.10;;;;;;5073113;28;20260;-84
2022/03/12 04:28:19;;;;;;;13.77;8.00;;;8.60;93.10;;;;;;5072569;28;20211;-84
2022/03/12 04:30:46;;;;;;;11.83;7.73;;;8.70;93.10;;;;;;5081360;28;20306;-84
2022/03/12 04:33:19;;;;;;;14.80;8.17;;;8.70;93.10;;;;;;5095855;28;20220;-84
2022/03/12 04:35:47;;;;;;;15.67;8.60;;;8.60;93.00;;;;;;5084018;28;20268;-85
2022/03/12 04:38:14;;;;;;;15.47;8.40;;;8.60;93.10;;;;;;5079864;28;20208;-85
2022/03/12 04:40:43;;;;;;;14.07;8.20;;;8.60;93.20;;;;;;5057272;28;20283;-84
2022/03/12 04:43:14;;;;;;;14.60;7.83;;;8.60;93.30;;;;;;5056650;28;20733;-83
2022/03/12 04:45:45;;;;;;;13.93;8.27;;;8.60;93.30;;;;;;5069439;28;20668;-84
2022/03/12 04:48:14;;;;;;;13.50;8.20;;;8.60;93.30;;;;;;5067239;28;20224;-85
2022/03/12 04:50:41;;;;;;;13.33;8.20;;;8.60;93.20;;;;;;5075163;28;20210;-84
2022/03/12 04:53:08;;;;;;;12.97;8.53;;;8.60;93.20;;;;;;5066496;28;20337;-84
2022/03/12 04:55:36;;;;;;;14.83;8.20;;;8.60;93.20;;;;;;5072696;28;20235;-84
2022/03/12 04:58:04;;;;;;;14.37;8.83;;;8.60;93.30;;;;;;5065785;28;20232;-85
2022/03/12 05:00:38;;;;;;;13.80;8.43;;;8.60;93.20;;;;;;5072783;28;20215;-85
2022/03/12 05:03:09;;;;;;;14.83;9.83;;;8.60;93.30;;;;;;5071622;28;20206;-82
2022/03/12 05:05:39;;;;;;;14.30;8.77;;;8.50;93.20;;;;;;5075298;28;20288;-84
2022/03/12 05:08:15;;;;;;;16.57;9.20;;;8.50;93.20;;;;;;5072317;28;20676;-85
2022/03/12 05:10:43;;;;;;;14.07;8.37;;;8.50;93.50;;;;;;5067490;28;20662;-85
2022/03/12 05:13:12;;;;;;;14.00;8.33;;;8.50;93.20;;;;;;5068674;28;20701;-84
2022/03/12 05:15:39;;;;;;;16.63;8.10;;;8.50;93.20;;;;;;5067846;28;20264;-84
2022/03/12 05:18:11;;;;;;;16.43;8.60;;;8.50;93.20;;;;;;5059680;28;20205;-84
2022/03/12 05:20:40;;;;;;;14.47;8.63;;;8.40;93.20;;;;;;5075266;28;20201;-84
2022/03/12 05:23:07;;;;;;;17.40;9.03;;;8.40;93.10;;;;;;5062967;28;20291;-85
2022/03/12 05:25:39;;;;;;;17.57;9.20;;;8.40;93.20;;;;;;5076005;28;20255;-85
2022/03/12 05:28:06;;;;;;;18.57;8.20;;;8.30;93.30;;;;;;5070460;28;20700;-84
2022/03/12 05:30:32;;;;;;;17.07;8.97;;;8.20;93.30;;;;;;5073407;28;20221;-84
2022/03/12 05:33:03;;;;;;;15.40;8.77;;;8.20;93.40;;;;;;5079272;28;20207;-84
2022/03/12 05:35:30;;;;;;;13.97;8.30;;;8.10;93.30;;;;;;5073048;28;20774;-84
2022/03/12 05:37:57;;;;;;;16.03;9.07;;;8.10;93.50;;;;;;5083958;28;20291;-84
2022/03/12 05:40:26;;;;;;;16.70;9.67;;;8.10;93.50;;;;;;5079060;28;20212;-85
2022/03/12 05:42:56;;;;;;;15.73;8.57;;;8.00;93.50;;;;;;5073562;28;20201;-85
2022/03/12 05:45:23;;;;;;;17.93;8.40;;;8.00;93.60;;;;;;5085673;28;20258;-84
2022/03/12 05:47:50;;;;;;;14.57;8.93;;;7.90;93.70;;;;;;5077812;28;20205;-85
2022/03/12 05:50:19;;;;;;;17.03;9.40;;;7.90;93.80;;;;;;5068311;28;20264;-84
2022/03/12 05:52:48;;;;;;;16.53;9.03;;;7.80;93.90;;;;;;5083024;28;20239;-84
2022/03/12 05:55:17;;;;;;;16.47;8.97;;;7.80;93.90;;;;;;5088121;28;20254;-84
2022/03/12 05:57:44;;;;;;;15.43;8.73;;;7.70;94.10;;;;;;5089411;28;20209;-84
2022/03/12 06:00:13;;;;;;;18.97;10.40;;;7.70;94.20;;;;;;5089179;28;20288;-83
2022/03/12 06:02:44;;;;;;;18.37;9.07;;;7.70;94.30;;;;;;5089596;28;20200;-83
2022/03/12 06:05:13;;;;;;;14.87;9.07;;;7.60;94.30;;;;;;5085721;28;20244;-85
2022/03/12 06:07:46;;;;;;;13.53;8.33;;;7.60;94.50;;;;;;5087848;28;20197;-84
2022/03/12 06:10:21;;;;;;;15.93;9.13;;;7.60;94.60;;;;;;5079252;28;20375;-84
2022/03/12 06:12:50;;;;;;;18.93;9.67;;;7.50;94.80;;;;;;5084490;28;20204;-84
2022/03/12 06:15:24;;;;;;;17.93;9.67;;;7.50;94.90;;;;;;5083990;28;20319;-85
2022/03/12 06:18:01;;;;;;;15.87;9.27;;;7.50;95.00;;;;;;5092554;28;20255;-85
2022/03/12 06:20:28;;;;;;;13.93;8.87;;;7.50;95.00;;;;;;5090719;28;20418;-85
2022/03/12 06:22:54;;;;;;;17.67;9.37;;;7.50;95.10;;;;;;5068466;28;20205;-85
2022/03/12 06:25:23;;;;;;;13.87;8.90;;;7.50;95.30;;;;;;5082263;28;20235;-84
2022/03/12 06:27:56;;;;;;;19.40;9.53;;;7.50;95.30;;;;;;5075997;28;20291;-83
2022/03/12 06:30:26;;;;;;;13.57;8.87;;;7.50;95.40;;;;;;5074806;28;20359;-84
2022/03/12 06:32:56;;;;;;;21.30;9.50;;;7.60;95.70;;;;;;5063747;28;20283;-84
2022/03/12 06:35:25;;;;;;;17.50;9.43;;;7.60;95.80;;;;;;5071833;28;20288;-84
2022/03/12 06:37:52;;;;;;;16.73;9.40;;;7.60;95.90;;;;;;5071341;28;20241;-84
2022/03/12 06:40:20;;;;;;;18.33;10.33;;;7.70;96.30;;;;;;5071658;28;20232;-85
2022/03/12 06:42:54;;;;;;;20.07;9.90;;;7.70;96.20;;;;;;5074910;28;20217;-85
2022/03/12 06:45:21;;;;;;;13.50;9.23;;;7.80;96.40;;;;;;5060315;28;20235;-85
2022/03/12 06:47:52;;;;;;;22.13;10.30;;;7.80;96.60;;;;;;5075279;28;20203;-86
2022/03/12 06:50:22;;;;;;;17.27;9.63;;;7.90;96.90;;;;;;5076552;28;20626;-85
2022/03/12 06:52:50;;;;;;;19.03;10.23;;;8.00;97.10;;;;;;5072285;28;20578;-84
2022/03/12 06:55:22;;;;;;;16.90;9.30;;;8.00;97.10;;;;;;5052396;28;20221;-86
2022/03/12 06:57:51;;;;;;;14.33;9.70;;;8.10;97.20;;;;;;5053228;28;20201;-85
2022/03/12 07:00:26;;;;;;;15.07;9.77;;;8.10;97.60;;;;;;5051068;28;20277;-84
2022/03/12 07:02:53;;;;;;;14.30;9.60;;;8.20;97.60;;;;;;5052806;28;20236;-84
2022/03/12 07:05:21;;;;;;;18.53;10.30;;;8.30;97.80;;;;;;5056862;28;20739;-84
2022/03/12 07:07:49;;;;;;;15.53;9.30;;;8.50;97.80;;;;;;5056591;28;20211;-85
2022/03/12 07:10:17;;;;;;;16.30;9.03;;;8.60;97.90;;;;;;5054668;28;20310;-84
2022/03/12 07:12:45;;;;;;;15.20;9.13;;;8.70;97.90;;;;;;5053379;28;20270;-86
2022/03/12 07:15:12;;;;;;;15.17;9.03;;;8.80;97.90;;;;;;5052648;28;20656;-85
2022/03/12 07:17:41;;;;;;;16.53;9.60;;;9.00;97.90;;;;;;5056450;28;20276;-84
2022/03/12 07:20:14;;;;;;;14.90;9.10;;;9.30;97.80;;;;;;5052740;28;20213;-85
2022/03/12 07:22:41;;;;;;;16.23;8.77;;;9.60;97.80;;;;;;5051588;28;20190;-84
2022/03/12 07:25:11;;;;;;;16.47;9.53;;;9.90;97.50;;;;;;5052731;28;20224;-84
2022/03/12 07:27:39;;;;;;;17.50;9.53;;;10.20;97.20;;;;;;5051022;28;20205;-85
2022/03/12 07:30:08;;;;;;;16.43;8.50;;;10.40;97.00;;;;;;5051888;28;20226;-86
2022/03/12 07:32:36;;;;;;;12.77;8.23;;;10.60;96.70;;;;;;5065553;28;20270;-85
2022/03/12 07:35:04;;;;;;;14.60;8.97;;;10.80;96.50;;;;;;5066687;28;20259;-87
2022/03/12 07:37:30;;;;;;;14.17;8.33;;;10.90;96.30;;;;;;5057028;28;20301;-84
2022/03/12 07:39:58;;;;;;;15.50;8.83;;;11.10;96.10;;;;;;5058419;28;20218;-87
2022/03/12 07:42:24;;;;;;;14.80;8.43;;;11.20;95.90;;;;;;5060526;28;20256;-87
2022/03/12 07:44:52;;;;;;;14.03;8.40;;;11.10;95.80;;;;;;5053328;28;20296;-86
2022/03/12 07:47:21;;;;;;;15.37;8.50;;;11.10;95.80;;;;;;5053819;28;20746;-86
2022/03/12 07:49:48;;;;;;;17.07;9.43;;;11.10;95.80;;;;;;5050355;28;20223;-84
2022/03/12 07:52:15;;;;;;;14.77;8.27;;;11.00;95.90;;;;;;5049864;28;20298;-82
2022/03/12 07:54:43;;;;;;;15.27;8.77;;;11.00;96.00;;;;;;5064380;28;20231;-84
2022/03/12 07:57:10;;;;;;;13.70;8.87;;;11.00;96.10;;;;;;5067921;28;20198;-83
2022/03/12 07:59:37;;;;;;;18.40;8.80;;;11.00;96.20;;;;;;5068020;28;20213;-83
2022/03/12 08:02:04;;;;;;;15.77;8.90;;;11.00;96.40;;;;;;5048976;28;20254;-85
2022/03/12 08:04:33;;;;;;;14.57;9.37;;;11.00;96.60;;;;;;5046957;28;20215;-82
2022/03/12 08:07:02;;;;;;;17.03;9.57;;;11.00;96.60;;;;;;5051463;28;20677;-83
2022/03/12 08:09:30;;;;;;;12.30;8.80;;;11.00;96.70;;;;;;5068003;28;20550;-83
2022/03/12 08:11:58;;;;;;;14.07;9.17;;;11.00;96.80;;;;;;5052802;28;20758;-82
2022/03/12 08:14:25;;;;;;;15.73;9.23;;;11.10;96.90;;;;;;5065740;28;20294;-84
2022/03/12 08:16:52;;;;;;;14.87;8.23;;;11.10;97.00;;;;;;5071127;28;20242;-84
2022/03/12 08:19:19;;;;;;;16.37;9.00;;;11.20;97.00;;;;;;5069355;28;20215;-85
2022/03/12 08:21:47;;;;;;;14.13;8.57;;;11.30;97.00;;;;;;5067035;28;20321;-84
2022/03/12 08:24:15;;;;;;;13.77;8.80;;;11.30;96.90;;;;;;5066566;28;20200;-82
2022/03/12 08:26:44;;;;;;;14.83;8.53;;;11.40;97.10;;;;;;5046610;28;20586;-83
2022/03/12 08:29:12;;;;;;;14.97;8.90;;;11.50;97.00;;;;;;5058720;28;20211;-82
2022/03/12 08:31:42;;;;;;;11.80;8.80;;;11.50;97.20;;;;;;5073379;28;20789;-84
2022/03/12 08:34:11;;;;;;;14.43;9.07;;;11.60;97.40;;;;;;5065124;28;20192;-84
2022/03/12 08:36:37;;;;;;;11.67;7.83;;;11.60;97.60;;;;;;5068426;28;20318;-85
2022/03/12 08:39:05;;;;;;;13.60;8.73;;;11.70;97.70;;;;;;5067284;28;20605;-82
2022/03/12 08:41:34;;;;;;;14.40;8.80;;;11.80;98.10;;;;;;5050068;28;20344;-84
2022/03/12 08:44:02;;;;;;;13.10;7.50;;;11.90;98.30;;;;;;5069442;28;20298;-81
2022/03/12 08:46:29;;;;;;;11.80;7.80;;;12.00;98.70;;;;;;5063384;28;21104;-83
2022/03/12 08:48:55;;;;;;;13.10;8.53;;;12.10;98.90;;;;;;5065977;28;20223;-82
2022/03/12 08:51:22;;;;;;;15.63;8.47;;;12.00;99.20;;;;;;5052865;28;20228;-81
2022/03/12 08:53:49;;;;;;;11.67;7.53;;;12.20;99.40;;;;;;5062602;28;20275;-82
2022/03/12 08:56:16;;;;;;;13.27;7.93;;;12.30;99.80;;;;;;5047252;28;20231;-82
2022/03/12 08:58:43;;;;;;;11.93;7.80;;;12.30;99.90;;;;;;5033755;28;20224;-81
2022/03/12 09:01:10;;;;;;;13.67;7.63;;;12.60;99.90;;;;;;5046862;28;20711;-81
2022/03/12 09:03:38;;;;;;;13.33;7.70;;;12.70;99.90;;;;;;5046469;28;20228;-81
2022/03/12 09:06:07;;;;;;;11.13;7.20;;;12.90;99.90;;;;;;5041147;28;20205;-82
2022/03/12 09:08:34;;;;;;;11.27;7.63;;;13.00;99.90;;;;;;5043137;28;20495;-82
2022/03/12 09:11:02;;;;;;;12.87;7.10;;;13.00;99.90;;;;;;5047523;28;20205;-83
2022/03/12 09:13:28;;;;;;;10.50;6.90;;;13.10;99.90;;;;;;5043932;28;20259;-82
2022/03/12 09:15:56;;;;;;;12.53;6.37;;;13.20;99.90;;;;;;5040532;28;20291;-83
2022/03/12 09:18:23;;;;;;;11.23;6.70;;;13.30;99.90;;;;;;5044537;28;20259;-88
2022/03/12 09:20:52;;;;;;;9.33;6.87;;;13.30;99.90;;;;;;5049465;28;20295;-88
2022/03/12 09:23:21;;;;;;;12.40;7.00;;;13.30;99.90;;;;;;5047492;28;20197;-87
2022/03/12 09:25:49;;;;;;;8.50;6.17;;;13.50;99.90;;;;;;5050470;28;20292;-85
2022/03/12 09:28:17;;;;;;;12.17;6.57;;;13.60;99.90;;;;;;5050877;28;20268;-85
2022/03/12 09:30:48;;;;;;;9.20;6.87;;;13.70;99.90;;;;;;5042191;28;20217;-86
2022/03/12 09:33:17;;;;;;;9.27;6.27;;;13.90;99.90;;;;;;5034391;28;20271;-85
2022/03/12 09:35:44;;;;;;;10.97;6.40;;;13.80;99.90;;;;;;5052937;28;20252;-87
2022/03/12 09:38:12;;;;;;;9.27;6.43;;;13.70;99.90;;;;;;5060559;28;20283;-86
2022/03/12 09:40:39;;;;;;;10.17;6.30;;;13.80;99.90;;;;;;5059039;28;20201;-86
2022/03/12 09:43:08;;;;;;;12.27;7.00;;;13.80;99.90;;;;;;5051342;28;20219;-86
2022/03/12 09:45:36;;;;;;;11.27;6.43;;;13.90;99.90;;;;;;5054682;28;20251;-85
2022/03/12 09:48:04;;;;;;;9.77;6.43;;;14.10;99.90;;;;;;5072428;28;20206;-84
2022/03/12 09:50:31;;;;;;;7.73;6.17;;;14.30;99.90;;;;;;5072822;28;20209;-83
2022/03/12 09:52:59;;;;;;;9.67;5.90;;;14.30;99.90;;;;;;5063033;28;20604;-85
2022/03/12 09:55:25;;;;;;;9.27;6.33;;;14.40;99.90;;;;;;5053097;28;20740;-84
2022/03/12 09:57:52;;;;;;;8.93;6.00;;;14.40;99.90;;;;;;5056404;28;20216;-84
2022/03/12 10:00:19;;;;;;;11.17;6.23;;;14.50;99.90;;;;;;5040417;28;20220;-86
2022/03/12 10:02:46;;;;;;;10.83;6.73;;;14.60;99.90;;;;;;5053250;28;20726;-85
2022/03/12 10:05:13;;;;;;;9.90;5.97;;;14.50;99.90;;;;;;5051699;28;20209;-84
2022/03/12 10:07:41;;;;;;;11.27;6.20;;;14.50;99.90;;;;;;5037818;28;20211;-84
2022/03/12 10:10:15;;;;;;;12.47;6.40;;;14.40;99.90;;;;;;5052704;28;20267;-84
2022/03/12 10:12:45;;;;;;;9.87;6.20;;;14.50;99.90;;;;;;5039357;28;20209;-83
2022/03/12 10:15:14;;;;;;;12.20;6.17;;;14.50;99.90;;;;;;5053179;28;20251;-86
2022/03/12 10:17:42;;;;;;;10.00;5.40;;;14.60;99.90;;;;;;5035963;28;20274;-85
2022/03/12 10:20:11;;;;;;;8.60;5.50;;;14.60;99.90;;;;;;5038756;28;20197;-85
2022/03/12 10:22:39;;;;;;;8.60;5.73;;;14.60;99.90;;;;;;5035620;28;20244;-86
2022/03/12 10:25:07;;;;;;;9.53;5.97;;;14.70;99.90;;;;;;5033045;28;20205;-84
2022/03/12 10:27:35;;;;;;;8.07;5.60;;;14.80;99.90;;;;;;5033282;28;20300;-85
2022/03/12 10:30:03;;;;;;;10.63;6.30;;;14.90;99.90;;;;;;5035078;28;20309;-84
2022/03/12 10:32:41;;;;;;;8.27;5.60;;;14.90;99.90;;;;;;5049354;28;20287;-84
2022/03/12 10:35:10;;;;;;;8.33;5.50;;;15.00;99.90;;;;;;5047645;28;20291;-86
2022/03/12 10:37:37;;;;;;;8.47;5.53;;;15.00;99.90;;;;;;5030854;28;20311;-84
2022/03/12 10:40:12;;;;;;;8.90;5.40;;;14.90;99.90;;;;;;5048209;28;20206;-86
2022/03/12 10:42:50;;;;;;;9.50;6.07;;;14.80;99.90;;;;;;5034530;28;20304;-83
2022/03/12 10:45:23;;;;;;;11.17;5.80;;;14.90;99.90;;;;;;5032576;28;20296;-84
2022/03/12 10:47:55;;;;;;;9.17;5.80;;;14.80;99.90;;;;;;5049280;28;20946;-85
2022/03/12 10:50:25;;;;;;;7.93;5.17;;;14.80;99.90;;;;;;5031081;28;20295;-84
2022/03/12 10:52:56;;;;;;;8.90;5.93;;;14.90;99.90;;;;;;5045143;28;20225;-85
2022/03/12 10:55:27;;;;;;;6.77;5.30;;;14.80;99.90;;;;;;5049325;28;20411;-85
2022/03/12 10:58:04;;;;;;;9.03;5.20;;;14.90;99.90;;;;;;5029459;28;20230;-83
2022/03/12 11:00:34;;;;;;;7.43;5.20;;;14.90;99.90;;;;;;5032945;28;20245;-84
2022/03/12 11:03:03;;;;;;;8.97;5.83;;;14.90;99.90;;;;;;5036285;28;20299;-86
2022/03/12 11:05:35;;;;;;;11.17;6.10;;;14.90;99.90;;;;;;5049582;28;20332;-85
2022/03/12 11:08:14;;;;;;;8.00;5.57;;;14.90;99.90;;;;;;5046873;28;20201;-85
2022/03/12 11:11:00;;;;;;;9.77;5.77;;;15.00;99.90;;;;;;5049765;28;20204;-87
2022/03/12 11:13:44;;;;;;;10.07;5.53;;;14.90;99.90;;;;;;5046165;28;20259;-82
2022/03/12 11:16:23;;;;;;;8.63;5.47;;;15.00;99.90;;;;;;5049587;28;20694;-84
2022/03/12 11:18:53;;;;;;;8.83;5.03;;;15.00;99.90;;;;;;5050174;28;20294;-85
2022/03/12 11:21:42;;;;;;;11.10;5.90;;;15.00;99.90;;;;;;5037209;28;20331;-86
2022/03/12 11:24:09;;;;;;;9.40;5.60;;;15.20;99.90;;;;;;5031986;28;20299;-85
2022/03/12 11:26:58;;;;;;;7.33;5.53;;;15.30;99.90;;;;;;5045983;28;20241;-84
2022/03/12 11:29:27;;;;;;;7.73;5.47;;;15.30;99.90;;;;;;5048346;28;20642;-85
2022/03/12 11:31:57;;;;;;;8.60;5.90;;;15.40;99.90;;;;;;5036441;28;20251;-84
2022/03/12 11:34:29;;;;;;;7.93;5.70;;;15.50;99.90;;;;;;5007884;28;20305;-84
2022/03/12 11:37:04;;;;;;;11.77;5.97;;;15.50;99.90;;;;;;5049026;28;20272;-85
2022/03/12 11:39:34;;;;;;;7.83;5.67;;;15.60;99.90;;;;;;5046133;28;20819;-85
2022/03/12 11:42:15;;;;;;;10.53;5.97;;;15.70;99.90;;;;;;5030037;28;20247;-85
2022/03/12 11:44:49;;;;;;;8.57;5.50;;;15.70;99.90;;;;;;5048419;28;20204;-86
2022/03/12 11:47:30;;;;;;;8.33;4.63;;;15.70;99.90;;;;;;5048597;28;20601;-85
2022/03/12 11:49:58;;;;;;;7.73;5.03;;;15.80;99.90;;;;;;5030591;28;20759;-87
2022/03/12 11:52:25;;;;;;;7.97;5.07;;;15.80;99.90;;;;;;5031615;28;20213;-85
2022/03/12 11:54:56;;;;;;;6.20;4.80;;;15.90;99.90;;;;;;5033012;28;20396;-86
2022/03/12 11:57:32;;;;;;;11.87;5.17;;;15.90;99.90;;;;;;5048138;28;20240;-86
2022/03/12 12:00:00;;;;;;;7.70;4.40;;;16.00;99.90;;;;;;5048934;28;20289;-87
2022/03/12 12:02:34;;;;;;;6.50;3.83;;;16.10;99.90;;;;;;5051701;28;20217;-86
2022/03/12 12:05:12;;;;;;;8.10;3.72;;;16.30;99.90;;;;;;5050818;28;20706;-85
2022/03/12 12:07:43;;;;;;;7.28;4.20;;;16.40;99.90;;;;;;5033885;28;20718;-85
2022/03/12 12:10:15;;;;;;;5.90;3.88;;;16.60;99.90;;;;;;5051388;28;20209;-85
2022/03/12 12:12:45;;;;;;;7.05;4.13;;;16.60;99.30;;;;;;5048683;28;20201;-85
2022/03/12 12:15:19;;;;;;;4.45;3.22;;;16.60;99.10;;;;;;5048676;28;20260;-85
2022/03/12 12:17:48;;;;;;;7.18;3.35;;;16.60;98.20;;;;;;5048695;28;20232;-85
2022/03/12 12:20:18;;;;;;;5.55;3.85;;;16.80;98.40;;;;;;5048446;28;20304;-85
2022/03/12 12:22:49;;;;;;;7.90;3.63;;;16.90;98.10;;;;;;5029833;28;20688;-86
2022/03/12 12:25:17;;;;;;;6.43;3.53;;;16.90;97.60;;;;;;5033408;28;20262;-87
2022/03/12 12:27:47;;;;;;;5.13;3.70;;;16.90;97.60;;;;;;5031384;28;20213;-86
2022/03/12 12:30:28;;;;;;;5.23;3.77;;;16.80;97.60;;;;;;5039084;28;20697;-88
2022/03/12 12:32:56;;;;;;;7.78;4.22;;;16.70;97.60;;;;;;5045999;28;20292;-85
2022/03/12 12:35:30;;;;;;;8.02;3.58;;;16.70;97.70;;;;;;5040640;28;20242;-87
2022/03/12 12:38:04;;;;;;;5.80;3.47;;;16.80;97.70;;;;;;5033005;28;20228;-86
2022/03/12 12:40:43;;;;;;;6.40;3.47;;;16.80;97.40;;;;;;5046196;28;20209;-86
2022/03/12 12:43:13;;;;;;;6.70;4.10;;;16.80;97.50;;;;;;5029915;28;20205;-86
2022/03/12 12:45:46;;;;;;;7.33;3.77;;;16.70;97.50;;;;;;5035255;28;20281;-85
2022/03/12 12:48:18;;;;;;;7.50;3.97;;;16.60;97.60;;;;;;5034519;28;20307;-86
2022/03/12 12:51:26;;;;;;;6.68;3.97;;;16.60;97.60;;;;;;5034341;28;20198;-87
2022/03/12 12:54:00;;;;;;;7.10;4.13;;;16.60;97.80;;;;;;5057040;28;20688;-86
2022/03/12 12:56:33;;;;;;;9.43;3.80;;;16.50;97.70;;;;;;5047071;28;20223;-86
2022/03/12 12:59:02;;;;;;;5.80;3.93;;;16.40;97.60;;;;;;5056064;28;20258;-87